createdAt,value
2019-04-04T00:01:59.727Z,6.57
2019-04-04T00:04:29.749Z,7.20
2019-04-04T00:06:59.807Z,6.87
2019-04-04T00:09:32.835Z,7.00
2019-04-04T00:12:01.675Z,6.80
2019-04-04T00:14:32.752Z,6.60
2019-04-04T00:17:03.040Z,6.83
2019-04-04T00:19:33.127Z,6.80
2019-04-04T00:22:04.927Z,6.37
2019-04-04T00:24:34.937Z,7.43
2019-04-04T00:27:05.089Z,7.30
2019-04-04T00:29:35.110Z,6.70
2019-04-04T00:32:05.246Z,6.73
2019-04-04T00:34:35.281Z,6.93
2019-04-04T00:37:05.423Z,6.60
2019-04-04T00:39:35.519Z,6.63
2019-04-04T00:42:05.571Z,6.77
2019-04-04T00:44:35.619Z,6.60
2019-04-04T00:47:05.738Z,6.80
2019-04-04T00:49:36.213Z,6.83
2019-04-04T00:52:06.519Z,6.93
2019-04-04T00:54:36.644Z,7.80
2019-04-04T00:57:06.723Z,7.30
2019-04-04T00:59:36.837Z,7.07
2019-04-04T01:02:06.898Z,6.53
2019-04-04T01:04:37.229Z,6.50
2019-04-04T01:07:07.346Z,7.50
2019-04-04T01:09:37.515Z,6.57
2019-04-04T01:12:07.694Z,7.10
2019-04-04T01:14:37.838Z,7.10
2019-04-04T01:17:07.966Z,7.03
2019-04-04T01:19:38.012Z,6.97
2019-04-04T01:22:08.139Z,7.00
2019-04-04T01:24:38.250Z,6.50
2019-04-04T01:27:08.312Z,7.37
2019-04-04T01:29:39.022Z,7.20
2019-04-04T01:32:10.246Z,6.60
2019-04-04T01:34:40.346Z,6.70
2019-04-04T01:37:10.408Z,7.07
2019-04-04T01:39:40.439Z,6.17
2019-04-04T01:42:10.501Z,6.53
2019-04-04T01:44:42.292Z,6.53
2019-04-04T01:47:12.402Z,6.37
2019-04-04T01:49:42.595Z,6.23
2019-04-04T01:52:12.819Z,6.13
2019-04-04T01:54:42.926Z,6.60
2019-04-04T01:57:13.257Z,6.37
2019-04-04T01:59:43.836Z,6.47
2019-04-04T02:02:17.662Z,6.30
2019-04-04T02:04:46.438Z,6.10
2019-04-04T02:07:16.503Z,6.30
2019-04-04T02:09:46.542Z,5.80
2019-04-04T02:12:16.676Z,6.43
2019-04-04T02:14:46.915Z,6.20
2019-04-04T02:17:17.169Z,7.00
2019-04-04T02:19:47.586Z,6.50
2019-04-04T02:22:17.672Z,6.50
2019-04-04T02:24:47.822Z,6.53
2019-04-04T02:27:17.894Z,7.50
2019-04-04T02:29:48.005Z,7.37
2019-04-04T02:32:19.171Z,6.80
2019-04-04T02:34:49.315Z,7.00
2019-04-04T02:37:21.253Z,7.00
2019-04-04T02:39:51.395Z,6.80
2019-04-04T02:42:22.521Z,7.60
2019-04-04T02:44:52.863Z,6.63
2019-04-04T02:47:23.168Z,6.53
2019-04-04T02:49:53.454Z,6.77
2019-04-04T02:52:23.677Z,6.73
2019-04-04T02:54:57.200Z,7.37
2019-04-04T02:57:25.651Z,7.37
2019-04-04T02:59:55.733Z,6.80
2019-04-04T03:02:25.991Z,6.43
2019-04-04T03:04:56.181Z,6.40
2019-04-04T03:07:29.841Z,6.60
2019-04-04T03:09:58.127Z,6.77
2019-04-04T03:12:28.990Z,6.60
2019-04-04T03:15:00.352Z,6.40
2019-04-04T03:17:32.661Z,6.10
2019-04-04T03:20:02.301Z,6.20
2019-04-04T03:22:34.120Z,6.90
2019-04-04T03:25:04.441Z,6.73
2019-04-04T03:27:36.195Z,6.37
2019-04-04T03:30:13.228Z,6.10
2019-04-04T03:32:38.429Z,6.27
2019-04-04T03:35:08.665Z,6.70
2019-04-04T03:37:40.946Z,7.07
2019-04-04T03:40:10.730Z,7.93
2019-04-04T03:42:43.944Z,7.30
2019-04-04T03:45:12.702Z,6.60
2019-04-04T03:47:44.504Z,7.10
2019-04-04T03:50:14.552Z,7.30
2019-04-04T03:52:44.774Z,6.53
2019-04-04T03:55:14.915Z,6.53
2019-04-04T03:57:45.249Z,6.50
2019-04-04T04:00:28.693Z,6.23
2019-04-04T04:02:58.829Z,6.33
2019-04-04T04:05:33.755Z,6.50
2019-04-04T04:08:01.695Z,6.40
2019-04-04T04:10:33.388Z,6.53
2019-04-04T04:13:03.740Z,6.10
2019-04-04T04:15:33.791Z,6.23
2019-04-04T04:18:03.959Z,6.33
2019-04-04T04:20:36.391Z,6.90
2019-04-04T04:23:05.963Z,7.67
2019-04-04T04:25:36.913Z,6.97
2019-04-04T04:28:07.195Z,6.63
2019-04-04T04:30:40.477Z,7.37
2019-04-04T04:33:09.153Z,6.73
2019-04-04T04:35:42.066Z,6.80
2019-04-04T04:38:11.053Z,6.47
2019-04-04T04:40:41.189Z,6.60
2019-04-04T04:43:15.276Z,7.20
2019-04-04T04:45:44.283Z,7.63
2019-04-04T04:48:15.288Z,7.20
2019-04-04T04:50:45.515Z,8.27
2019-04-04T04:53:19.524Z,7.47
2019-04-04T04:55:49.904Z,7.77
2019-04-04T04:58:20.541Z,7.67
2019-04-04T05:00:50.894Z,7.37
2019-04-04T05:03:22.167Z,7.60
2019-04-04T05:05:53.401Z,7.87
2019-04-04T05:08:23.486Z,7.23
2019-04-04T05:10:53.977Z,7.60
2019-04-04T05:13:26.081Z,7.40
2019-04-04T05:15:58.449Z,7.57
2019-04-04T05:18:29.005Z,7.60
2019-04-04T05:21:01.611Z,7.30
2019-04-04T05:23:31.146Z,7.40
2019-04-04T05:26:03.091Z,7.73
2019-04-04T05:28:33.377Z,7.13
2019-04-04T05:31:03.571Z,7.10
2019-04-04T05:33:34.124Z,8.00
2019-04-04T05:36:05.249Z,7.90
2019-04-04T05:38:36.243Z,7.73
2019-04-04T05:41:06.448Z,7.97
2019-04-04T05:43:37.521Z,7.83
2019-04-04T05:46:08.349Z,8.40
2019-04-04T05:48:38.501Z,7.97
2019-04-04T05:51:08.679Z,8.50
2019-04-04T05:53:38.816Z,8.57
2019-04-04T05:56:09.003Z,8.50
2019-04-04T05:58:39.322Z,8.30
2019-04-04T06:01:12.037Z,8.40
2019-04-04T06:03:42.279Z,8.67
2019-04-04T06:06:12.406Z,7.73
2019-04-04T06:08:44.567Z,9.03
2019-04-04T06:11:14.720Z,7.80
2019-04-04T06:13:45.156Z,7.70
2019-04-04T06:16:15.319Z,7.27
2019-04-04T06:18:45.416Z,7.67
2019-04-04T06:21:18.495Z,7.70
2019-04-04T06:23:47.510Z,7.60
2019-04-04T06:26:17.671Z,7.30
2019-04-04T06:28:47.906Z,7.43
2019-04-04T06:31:18.068Z,7.10
2019-04-04T06:33:50.049Z,7.30
2019-04-04T06:36:23.100Z,7.27
2019-04-04T06:38:54.106Z,7.13
2019-04-04T06:41:24.807Z,7.17
2019-04-04T06:43:55.422Z,7.27
2019-04-04T06:46:25.575Z,7.30
2019-04-04T06:48:55.816Z,7.67
2019-04-04T06:51:25.976Z,7.50
2019-04-04T06:53:56.101Z,6.70
2019-04-04T06:56:26.208Z,7.30
2019-04-04T06:58:56.829Z,6.90
2019-04-04T07:01:28.986Z,7.00
2019-04-04T07:03:59.615Z,7.03
2019-04-04T07:06:30.367Z,6.53
2019-04-04T07:09:00.524Z,6.47
2019-04-04T07:11:30.553Z,7.07
2019-04-04T07:14:00.737Z,6.10
2019-04-04T07:16:30.868Z,6.07
2019-04-04T07:19:00.939Z,6.00
2019-04-04T07:21:31.017Z,5.63
2019-04-04T07:24:00.469Z,5.73
2019-04-04T07:26:30.702Z,6.00
2019-04-04T07:29:00.858Z,5.43
2019-04-04T07:31:33.107Z,5.47
2019-04-04T07:34:03.050Z,5.43
2019-04-04T07:36:33.112Z,5.20
2019-04-04T07:39:03.378Z,5.93
2019-04-04T07:41:33.496Z,6.30
2019-04-04T07:44:06.284Z,5.67
2019-04-04T07:46:36.416Z,5.63
2019-04-04T07:49:06.533Z,6.03
2019-04-04T07:51:36.671Z,6.20
2019-04-04T07:54:07.382Z,6.27
2019-04-04T07:56:38.141Z,5.90
2019-04-04T07:59:08.239Z,5.80
2019-04-04T08:01:50.281Z,5.87
2019-04-04T08:04:10.749Z,5.10
2019-04-04T08:06:40.991Z,6.00
2019-04-04T08:09:11.079Z,5.87
2019-04-04T08:11:41.300Z,5.50
2019-04-04T08:14:11.395Z,5.63
2019-04-04T08:16:41.755Z,5.10
2019-04-04T08:19:11.782Z,5.70
2019-04-04T08:21:41.951Z,9.17
2019-04-04T08:24:12.326Z,6.23
2019-04-04T08:26:42.498Z,6.57
2019-04-04T08:29:12.599Z,6.20
2019-04-04T08:31:42.757Z,7.80
2019-04-04T08:34:12.952Z,6.37
2019-04-04T08:36:43.149Z,6.30
2019-04-04T08:39:13.644Z,5.87
2019-04-04T08:41:43.703Z,5.67
2019-04-04T08:44:13.727Z,5.97
2019-04-04T08:46:43.771Z,5.70
2019-04-04T08:49:13.814Z,5.80
2019-04-04T08:51:44.021Z,5.47
2019-04-04T08:54:17.173Z,6.20
2019-04-04T08:56:47.342Z,7.00
2019-04-04T08:59:19.635Z,5.70
2019-04-04T09:01:52.041Z,6.17
2019-04-04T09:04:24.069Z,6.00
2019-04-04T09:06:53.873Z,6.93
2019-04-04T09:09:24.059Z,5.97
2019-04-04T09:11:54.317Z,5.73
2019-04-04T09:14:24.585Z,6.07
2019-04-04T09:16:54.716Z,5.70
2019-04-04T09:19:24.839Z,6.30
2019-04-04T09:22:10.784Z,5.87
2019-04-04T09:24:38.834Z,6.10
2019-04-04T09:27:09.317Z,6.57
2019-04-04T09:29:39.378Z,5.90
2019-04-04T09:32:09.616Z,5.80
2019-04-04T09:34:39.702Z,6.20
2019-04-04T09:37:09.950Z,6.03
2019-04-04T09:39:40.106Z,5.67
2019-04-04T09:42:10.506Z,5.90
2019-04-04T09:44:40.635Z,5.97
2019-04-04T09:47:10.686Z,5.27
2019-04-04T09:49:40.845Z,5.63
2019-04-04T09:52:11.056Z,6.27
2019-04-04T09:54:41.482Z,6.00
2019-04-04T09:57:11.757Z,5.63
2019-04-04T09:59:43.670Z,6.40
2019-04-04T10:02:13.833Z,5.93
2019-04-04T10:04:44.094Z,5.87
2019-04-04T10:07:17.238Z,5.50
2019-04-04T10:09:47.892Z,5.53
2019-04-04T10:12:17.971Z,6.00
2019-04-04T10:14:48.068Z,6.17
2019-04-04T10:17:18.302Z,6.43
2019-04-04T10:19:49.969Z,5.97
2019-04-04T10:22:20.040Z,6.37
2019-04-04T10:24:50.670Z,6.03
2019-04-04T10:27:20.919Z,6.03
2019-04-04T10:29:51.054Z,6.40
2019-04-04T10:32:21.140Z,6.20
2019-04-04T10:34:51.300Z,20.27
2019-04-04T10:37:21.574Z,6.17
2019-04-04T10:39:51.763Z,18.07
2019-04-04T10:42:22.022Z,39.20
2019-04-04T10:44:59.010Z,5.70
2019-04-04T10:47:29.119Z,10.50
2019-04-04T10:49:59.302Z,7.70
2019-04-04T10:52:29.433Z,5.83
2019-04-04T10:55:01.466Z,5.57
2019-04-04T10:57:31.503Z,5.40
2019-04-04T11:00:03.238Z,5.93
2019-04-04T11:02:33.399Z,5.40
2019-04-04T11:05:03.591Z,4.97
2019-04-04T11:07:33.651Z,5.00
2019-04-04T11:10:03.908Z,5.00
2019-04-04T11:12:34.511Z,8.90
2019-04-04T11:15:05.476Z,6.60
2019-04-04T11:17:35.642Z,7.03
2019-04-04T11:20:06.775Z,5.30
2019-04-04T11:22:36.835Z,4.30
2019-04-04T11:25:07.067Z,4.60
2019-04-04T11:27:37.260Z,17.40
2019-04-04T11:30:08.501Z,6.80
2019-04-04T11:32:38.685Z,5.40
2019-04-04T11:35:10.652Z,4.90
2019-04-04T11:37:40.773Z,6.10
2019-04-04T11:40:11.761Z,4.63
2019-04-04T11:42:42.351Z,4.60
2019-04-04T11:45:12.706Z,10.93
2019-04-04T11:47:42.746Z,8.17
2019-04-04T11:50:13.372Z,4.47
2019-04-04T11:52:43.441Z,4.60
2019-04-04T11:55:13.863Z,18.50
2019-04-04T11:57:44.032Z,4.40
2019-04-04T12:00:18.944Z,4.70
2019-04-04T12:02:49.157Z,4.10
2019-04-04T12:05:19.214Z,4.40
2019-04-04T12:07:49.402Z,3.93
2019-04-04T12:10:19.626Z,5.87
2019-04-04T12:12:49.693Z,3.97
2019-04-04T12:15:19.810Z,3.80
2019-04-04T12:17:51.312Z,3.57
2019-04-04T12:20:21.546Z,3.50
2019-04-04T12:22:52.062Z,4.20
2019-04-04T12:25:22.208Z,4.30
2019-04-04T12:27:52.441Z,4.63
2019-04-04T12:30:22.554Z,4.53
2019-04-04T12:32:52.680Z,4.77
2019-04-04T12:35:23.367Z,4.43
2019-04-04T12:37:53.602Z,4.97
2019-04-04T12:40:23.707Z,5.70
2019-04-04T12:42:53.899Z,4.30
2019-04-04T12:45:24.319Z,4.17
2019-04-04T12:47:54.519Z,4.30
2019-04-04T12:50:24.641Z,4.53
2019-04-04T12:52:54.743Z,4.83
2019-04-04T12:55:24.871Z,4.70
2019-04-04T12:57:55.027Z,4.73
2019-04-04T13:00:25.301Z,4.47
2019-04-04T13:02:55.437Z,4.53
2019-04-04T13:05:25.661Z,4.60
2019-04-04T13:07:55.756Z,4.33
2019-04-04T13:10:32.972Z,4.17
2019-04-04T13:12:58.308Z,4.87
2019-04-04T13:15:28.595Z,4.20
2019-04-04T13:17:58.668Z,4.43
2019-04-04T13:20:28.842Z,4.20
2019-04-04T13:22:59.024Z,4.37
2019-04-04T13:25:29.143Z,4.40
2019-04-04T13:28:00.321Z,4.57
2019-04-04T13:30:30.400Z,4.80
2019-04-04T13:33:00.529Z,4.70
2019-04-04T13:35:32.635Z,4.70
2019-04-04T13:38:04.969Z,4.57
2019-04-04T13:40:44.827Z,4.40
2019-04-04T13:43:06.848Z,5.40
2019-04-04T13:45:36.990Z,5.03
2019-04-04T13:48:07.074Z,5.30
2019-04-04T13:50:37.309Z,5.87
2019-04-04T13:53:07.338Z,5.93
2019-04-04T13:55:39.290Z,5.47
2019-04-04T13:58:09.362Z,5.37
2019-04-04T14:00:39.424Z,5.27
2019-04-04T14:03:09.489Z,5.10
2019-04-04T14:05:39.630Z,4.83
2019-04-04T14:08:09.831Z,4.70
2019-04-04T14:10:39.974Z,4.47
2019-04-04T14:13:11.967Z,4.50
2019-04-04T14:15:41.837Z,4.50
2019-04-04T14:18:38.190Z,4.70
2019-04-04T14:21:03.723Z,4.43
2019-04-04T14:23:28.865Z,5.10
2019-04-04T14:25:59.900Z,5.07
2019-04-04T14:28:30.768Z,5.00
2019-04-04T14:31:01.007Z,4.40
2019-04-04T14:33:31.139Z,4.30
2019-04-04T14:36:01.198Z,5.00
2019-04-04T14:38:31.463Z,5.00
2019-04-04T14:41:11.446Z,4.47
2019-04-04T14:43:37.776Z,4.27
2019-04-04T14:46:07.835Z,4.67
2019-04-04T14:48:42.959Z,4.77
2019-04-04T14:51:12.705Z,5.00
2019-04-04T14:53:42.748Z,4.90
2019-04-04T14:56:12.956Z,4.80
2019-04-04T14:58:43.202Z,4.83
2019-04-04T15:01:13.264Z,4.77
2019-04-04T15:03:43.328Z,4.50
2019-04-04T15:06:13.561Z,4.40
2019-04-04T15:08:43.609Z,4.43
2019-04-04T15:11:23.440Z,4.10
2019-04-04T15:13:46.254Z,4.77
2019-04-04T15:16:19.494Z,4.67
2019-04-04T15:18:49.691Z,4.73
2019-04-04T15:21:19.739Z,4.90
2019-04-04T15:23:49.788Z,4.73
2019-04-04T15:26:19.871Z,5.00
2019-04-04T15:28:49.949Z,5.07
2019-04-04T15:31:20.282Z,4.40
2019-04-04T15:33:50.685Z,4.50
2019-04-04T15:36:20.903Z,4.80
2019-04-04T15:38:51.125Z,4.30
2019-04-04T15:41:21.445Z,4.87
2019-04-04T15:43:51.610Z,4.63
2019-04-04T15:46:21.710Z,4.83
2019-04-04T15:48:51.953Z,4.13
2019-04-04T15:51:22.067Z,4.63
2019-04-04T15:53:52.219Z,3.90
2019-04-04T15:56:22.360Z,4.33
2019-04-04T15:58:52.481Z,4.30
2019-04-04T16:01:22.635Z,4.10
2019-04-04T16:03:52.920Z,4.10
2019-04-04T16:06:23.079Z,4.10
2019-04-04T16:08:53.187Z,3.83
2019-04-04T16:11:23.322Z,3.80
2019-04-04T16:13:53.635Z,4.00
2019-04-04T16:16:23.845Z,3.90
2019-04-04T16:18:54.015Z,4.10
2019-04-04T16:21:24.190Z,4.10
2019-04-04T16:23:54.293Z,4.37
2019-04-04T16:26:24.489Z,4.27
2019-04-04T16:28:56.060Z,3.93
2019-04-04T16:31:26.100Z,4.27
2019-04-04T16:33:56.163Z,4.70
2019-04-04T16:36:26.332Z,4.40
2019-04-04T16:38:57.962Z,4.80
2019-04-04T16:41:28.195Z,5.73
2019-04-04T16:43:58.313Z,5.60
2019-04-04T16:46:40.316Z,4.47
2019-04-04T16:49:10.444Z,5.10
2019-04-04T16:51:40.577Z,4.50
2019-04-04T16:54:10.711Z,5.73
2019-04-04T16:56:40.918Z,4.70
2019-04-04T16:59:11.041Z,4.30
2019-04-04T17:01:41.179Z,3.40
2019-04-04T17:04:11.352Z,3.57
2019-04-04T17:06:41.543Z,4.17
2019-04-04T17:09:11.691Z,4.40
2019-04-04T17:11:41.798Z,4.30
2019-04-04T17:14:12.019Z,4.70
2019-04-04T17:16:42.235Z,4.20
2019-04-04T17:19:12.512Z,4.20
2019-04-04T17:21:42.638Z,4.23
2019-04-04T17:24:12.727Z,4.30
2019-04-04T17:26:42.929Z,4.73
2019-04-04T17:29:13.210Z,5.00
2019-04-04T17:31:43.375Z,4.83
2019-04-04T17:34:13.602Z,4.70
2019-04-04T17:36:43.918Z,4.73
2019-04-04T17:39:14.526Z,4.77
2019-04-04T17:41:45.739Z,5.00
2019-04-04T17:44:15.801Z,5.43
2019-04-04T17:46:46.006Z,5.20
2019-04-04T17:49:16.162Z,5.00
2019-04-04T17:51:46.340Z,4.90
2019-04-04T17:54:17.529Z,4.80
2019-04-04T17:56:50.386Z,5.83
2019-04-04T17:59:20.705Z,5.90
2019-04-04T18:01:50.869Z,5.20
2019-04-04T18:04:20.997Z,6.80
2019-04-04T18:06:52.938Z,5.97
2019-04-04T18:09:31.603Z,5.03
2019-04-04T18:11:54.944Z,5.93
2019-04-04T18:14:25.150Z,7.57
2019-04-04T18:16:55.229Z,8.63
2019-04-04T18:19:25.380Z,6.80
2019-04-04T18:21:55.683Z,8.80
2019-04-04T18:24:25.826Z,7.90
2019-04-04T18:26:55.986Z,6.93
2019-04-04T18:29:26.086Z,8.23
2019-04-04T18:31:56.193Z,9.20
2019-04-04T18:34:26.364Z,9.63
2019-04-04T18:36:56.803Z,9.67
2019-04-04T18:39:26.979Z,10.50
2019-04-04T18:41:57.080Z,24.37
2019-04-04T18:44:27.210Z,36.40
2019-04-04T18:46:57.415Z,31.90
2019-04-04T18:49:27.605Z,37.10
2019-04-04T18:51:57.760Z,10.57
2019-04-04T18:54:28.177Z,16.90
2019-04-04T18:56:58.451Z,8.70
2019-04-04T18:59:28.523Z,7.87
2019-04-04T19:01:58.708Z,9.30
2019-04-04T19:04:28.923Z,10.50
2019-04-04T19:06:59.089Z,7.60
2019-04-04T19:09:29.442Z,8.03
2019-04-04T19:12:02.020Z,6.80
2019-04-04T19:14:32.259Z,6.70
2019-04-04T19:17:02.440Z,6.70
2019-04-04T19:19:32.656Z,7.37
2019-04-04T19:22:02.814Z,9.00
2019-04-04T19:24:32.949Z,8.20
2019-04-04T19:27:03.490Z,9.40
2019-04-04T19:29:33.557Z,11.27
2019-04-04T19:32:03.725Z,12.40
2019-04-04T19:34:33.903Z,17.30
2019-04-04T19:37:04.135Z,25.70
2019-04-04T19:39:34.361Z,21.67
2019-04-04T19:42:05.210Z,17.07
2019-04-04T19:44:37.987Z,16.43
2019-04-04T19:47:08.448Z,15.47
2019-04-04T19:49:38.700Z,16.60
2019-04-04T19:52:08.847Z,15.40
2019-04-04T19:54:38.994Z,17.60
2019-04-04T19:57:09.342Z,13.87
2019-04-04T19:59:39.682Z,14.90
2019-04-04T20:02:09.889Z,15.27
2019-04-04T20:04:40.135Z,14.13
2019-04-04T20:07:10.332Z,14.77
2019-04-04T20:09:40.555Z,33.40
2019-04-04T20:12:10.686Z,20.63
2019-04-04T20:14:40.843Z,20.27
2019-04-04T20:17:11.263Z,25.97
2019-04-04T20:19:41.305Z,21.00
2019-04-04T20:22:11.488Z,17.10
2019-04-04T20:24:41.741Z,14.93
2019-04-04T20:27:12.001Z,15.17
2019-04-04T20:29:42.131Z,19.80
2019-04-04T20:32:12.364Z,17.47
2019-04-04T20:34:42.562Z,15.07
2019-04-04T20:37:12.738Z,13.67
2019-04-04T20:39:43.032Z,13.37
2019-04-04T20:42:13.179Z,12.90
2019-04-04T20:44:43.319Z,12.33
2019-04-04T20:47:13.489Z,12.87
2019-04-04T20:49:43.642Z,12.53
2019-04-04T20:52:13.956Z,12.13
2019-04-04T20:54:44.043Z,11.70
2019-04-04T20:57:16.029Z,12.93
2019-04-04T20:59:46.556Z,12.13
2019-04-04T21:02:16.690Z,12.20
2019-04-04T21:04:46.986Z,11.77
2019-04-04T21:07:17.173Z,12.67
2019-04-04T21:09:48.199Z,12.23
2019-04-04T21:12:18.422Z,12.97
2019-04-04T21:14:48.627Z,11.90
2019-04-04T21:17:18.930Z,12.10
2019-04-04T21:19:48.993Z,12.67
2019-04-04T21:22:27.755Z,12.37
2019-04-04T21:24:53.585Z,11.90
2019-04-04T21:27:23.744Z,12.57
2019-04-04T21:29:53.913Z,12.70
2019-04-04T21:32:23.983Z,13.20
2019-04-04T21:34:54.298Z,13.90
2019-04-04T21:37:24.522Z,13.87
2019-04-04T21:39:54.640Z,13.97
2019-04-04T21:42:24.882Z,13.87
2019-04-04T21:44:55.185Z,13.57
2019-04-04T21:47:25.363Z,13.20
2019-04-04T21:49:55.611Z,14.30
2019-04-04T21:52:25.933Z,15.20
2019-04-04T21:54:56.082Z,14.13
2019-04-04T21:57:26.210Z,13.83
2019-04-04T21:59:56.505Z,13.63
2019-04-04T22:02:26.690Z,13.07
2019-04-04T22:04:56.942Z,13.17
2019-04-04T22:07:28.040Z,13.50
2019-04-04T22:09:58.193Z,13.67
2019-04-04T22:12:28.422Z,13.07
2019-04-04T22:14:58.683Z,13.80
2019-04-04T22:17:29.004Z,13.40
2019-04-04T22:19:59.229Z,12.67
2019-04-04T22:22:29.608Z,12.63
2019-04-04T22:25:00.015Z,12.63
2019-04-04T22:27:30.441Z,13.23
2019-04-04T22:30:00.679Z,13.23
2019-04-04T22:32:30.914Z,12.97
2019-04-04T22:35:01.163Z,13.80
2019-04-04T22:37:32.267Z,13.60
2019-04-04T22:40:02.487Z,13.13
2019-04-04T22:42:32.875Z,13.77
2019-04-04T22:45:03.301Z,13.43
2019-04-04T22:47:35.450Z,13.47
2019-04-04T22:50:05.968Z,12.60
2019-04-04T22:52:36.194Z,12.53
2019-04-04T22:55:06.425Z,14.13
2019-04-04T22:57:38.903Z,13.80
2019-04-04T23:00:10.180Z,13.87
2019-04-04T23:02:41.053Z,12.70
2019-04-04T23:05:12.081Z,12.57
2019-04-04T23:07:43.029Z,13.83
2019-04-04T23:10:14.114Z,13.47
2019-04-04T23:12:45.085Z,13.77
2019-04-04T23:15:15.987Z,13.70
2019-04-04T23:17:46.879Z,13.47
2019-04-04T23:20:17.862Z,14.23
2019-04-04T23:22:53.056Z,13.47
2019-04-04T23:25:21.493Z,14.03
2019-04-04T23:27:52.415Z,14.70
2019-04-04T23:30:23.473Z,15.67
2019-04-04T23:32:54.435Z,15.27
2019-04-04T23:35:25.467Z,14.37
2019-04-04T23:37:56.346Z,14.37
2019-04-04T23:40:27.222Z,13.27
2019-04-04T23:42:58.691Z,14.00
2019-04-04T23:45:29.711Z,14.00
2019-04-04T23:48:01.391Z,14.50
2019-04-04T23:50:32.325Z,14.50
2019-04-04T23:53:03.599Z,14.40
2019-04-04T23:55:34.528Z,14.47
2019-04-04T23:58:05.577Z,14.20
